Terminal Aerodrome Forecast
Issued by NWS Detroit/Pontiac, MI

Home | Current Version | Previous Version | Text Only | Print | Product List | Glossary On
Versions: 1 2 3 4 5 6 7 8 9 10 11 12 13 14 15 16 17
000
FTUS43 KDTX 250520
TAFFNT
TAF
KFNT 250520Z 2506/2606 22004KT 6SM BR BKN200
     FM250700 22003KT 4SM BR SCT060 BKN200
      TEMPO 2507/2511 BKN060
     FM251100 24011G18KT P6SM OVC012
     FM251600 27015G25KT P6SM BKN018
     FM251900 28014G24KT P6SM SKC
     FM260000 27012KT P6SM SKC=

USA.gov is the U.S. government's official web portal to all federal, state and local government web resources and services.